createdAt,value
2023-02-02T00:00:56.651Z,101525.41
2023-02-02T00:03:23.638Z,101496.19
2023-02-02T00:05:52.913Z,101535.09
2023-02-02T00:08:21.418Z,101522.53
2023-02-02T00:10:48.656Z,101512.72
2023-02-02T00:13:15.519Z,101507.44
2023-02-02T00:16:02.796Z,101495.84
2023-02-02T00:19:03.799Z,101539.03
2023-02-02T00:22:01.206Z,101524.31
2023-02-02T00:24:28.233Z,101506.78
2023-02-02T00:27:00.152Z,101530.38
2023-02-02T00:29:30.343Z,101537.91
2023-02-02T00:31:58.054Z,101520.38
2023-02-02T00:34:25.926Z,101538.25
2023-02-02T00:36:53.052Z,101496.97
2023-02-02T00:39:25.429Z,101531.84
2023-02-02T00:41:52.860Z,101452.44
2023-02-02T00:44:38.249Z,101503.63
2023-02-02T00:47:05.364Z,101527.56
2023-02-02T00:49:32.247Z,101558.38
2023-02-02T00:52:00.536Z,101559.50
2023-02-02T00:54:28.263Z,101449.63
2023-02-02T00:57:15.776Z,101532.06
2023-02-02T00:59:56.360Z,101545.09
2023-02-02T01:02:43.807Z,101554.31
2023-02-02T01:05:24.579Z,101574.78
2023-02-02T01:07:53.659Z,101453.78
2023-02-02T01:10:20.741Z,101515.03
2023-02-02T01:12:47.697Z,101566.53
2023-02-02T01:15:14.735Z,101514.88
2023-02-02T01:18:01.815Z,101558.16
2023-02-02T01:20:42.861Z,101544.56
2023-02-02T01:23:09.830Z,101519.06
2023-02-02T01:25:38.649Z,101543.50
2023-02-02T01:28:06.217Z,101580.50
2023-02-02T01:30:33.265Z,101560.34
2023-02-02T01:33:00.202Z,101576.34
2023-02-02T01:35:27.272Z,101557.22
2023-02-02T01:37:55.170Z,101570.94
2023-02-02T01:40:22.262Z,101465.78
2023-02-02T01:42:49.103Z,101579.72
2023-02-02T01:45:29.455Z,101526.22
2023-02-02T01:48:16.802Z,101570.94
2023-02-02T01:51:22.818Z,101563.19
2023-02-02T01:54:12.619Z,101461.41
2023-02-02T01:57:08.829Z,101557.47
2023-02-02T01:59:52.141Z,101549.81
2023-02-02T02:02:19.770Z,101494.28
2023-02-02T02:04:50.369Z,101464.47
2023-02-02T02:07:18.839Z,101495.41
2023-02-02T02:09:45.813Z,101491.13
2023-02-02T02:12:15.596Z,101539.81
2023-02-02T02:15:07.288Z,101517.00
2023-02-02T02:18:07.844Z,101536.31
2023-02-02T02:21:22.207Z,101537.44
2023-02-02T02:24:46.945Z,101545.09
2023-02-02T02:27:45.056Z,101550.72
2023-02-02T02:30:25.005Z,101550.06
2023-02-02T02:33:02.721Z,101511.50
2023-02-02T02:35:57.835Z,101520.38
2023-02-02T02:38:51.742Z,101538.34
2023-02-02T02:41:31.049Z,101493.84
2023-02-02T02:44:15.747Z,101536.13
2023-02-02T02:46:43.624Z,101555.91
2023-02-02T02:49:12.786Z,101548.16
2023-02-02T02:51:49.987Z,101561.19
2023-02-02T02:54:46.077Z,101537.00
2023-02-02T02:57:46.886Z,101571.88
2023-02-02T03:00:56.860Z,101564.66
2023-02-02T03:03:59.175Z,101577.72
2023-02-02T03:06:49.369Z,101548.88
2023-02-02T03:09:41.888Z,101572.41
2023-02-02T03:12:22.574Z,101535.19
2023-02-02T03:14:49.573Z,101565.00
2023-02-02T03:17:36.904Z,101512.63
2023-02-02T03:20:37.874Z,101551.16
2023-02-02T03:23:18.572Z,101578.59
2023-02-02T03:25:46.152Z,101514.88
2023-02-02T03:28:15.663Z,101578.22
2023-02-02T03:30:44.314Z,101595.34
2023-02-02T03:33:12.980Z,101556.16
2023-02-02T03:35:40.102Z,101579.22
2023-02-02T03:38:07.129Z,101571.75
2023-02-02T03:40:33.993Z,101569.06
2023-02-02T03:43:01.034Z,101614.25
2023-02-02T03:45:28.661Z,101591.53
2023-02-02T03:47:55.584Z,101617.16
2023-02-02T03:50:22.515Z,101606.13
2023-02-02T03:52:49.389Z,101588.66
2023-02-02T03:55:36.909Z,101577.69
2023-02-02T03:58:25.950Z,101572.16
2023-02-02T04:01:20.925Z,101579.75
2023-02-02T04:04:21.943Z,101583.38
2023-02-02T04:07:16.148Z,101550.91
2023-02-02T04:09:43.165Z,101611.97
2023-02-02T04:12:10.161Z,101559.66
2023-02-02T04:14:37.102Z,101614.59
2023-02-02T04:17:24.036Z,101610.53
2023-02-02T04:20:07.342Z,101616.59
2023-02-02T04:22:35.314Z,101613.41
2023-02-02T04:25:02.373Z,101559.97
2023-02-02T04:27:32.672Z,101614.19
2023-02-02T04:30:12.950Z,101580.53
2023-02-02T04:32:55.252Z,101600.28
2023-02-02T04:35:22.303Z,101609.25
2023-02-02T04:37:49.517Z,101567.59
2023-02-02T04:40:16.567Z,101572.78
2023-02-02T04:42:45.424Z,101552.78
2023-02-02T04:45:12.523Z,101604.34
2023-02-02T04:47:39.469Z,101559.69
2023-02-02T04:50:07.942Z,101577.41
2023-02-02T04:52:35.498Z,101599.66
2023-02-02T04:55:02.550Z,101563.13
2023-02-02T04:57:49.926Z,101604.59
2023-02-02T05:00:50.956Z,101599.22
2023-02-02T05:03:31.628Z,101626.16
2023-02-02T05:06:03.280Z,101546.66
2023-02-02T05:08:30.872Z,101633.03
2023-02-02T05:10:57.793Z,101600.47
2023-02-02T05:13:24.825Z,101584.72
2023-02-02T05:16:11.968Z,101628.22
2023-02-02T05:19:06.033Z,101620.28
2023-02-02T05:21:56.599Z,101618.25
2023-02-02T05:24:23.568Z,101598.56
2023-02-02T05:26:50.839Z,101630.63
2023-02-02T05:29:37.937Z,101617.63
2023-02-02T05:32:38.927Z,101635.03
2023-02-02T05:35:21.413Z,101644.31
2023-02-02T05:37:48.416Z,101653.06
2023-02-02T05:40:15.709Z,101659.50
2023-02-02T05:42:42.625Z,101620.97
2023-02-02T05:45:10.222Z,101678.97
2023-02-02T05:47:37.141Z,101629.47
2023-02-02T05:50:04.226Z,101641.31
2023-02-02T05:52:34.793Z,101642.22
2023-02-02T05:55:01.986Z,101638.19
2023-02-02T05:57:49.967Z,101632.66
2023-02-02T06:00:51.019Z,101702.88
2023-02-02T06:03:52.014Z,101707.41
2023-02-02T06:06:54.943Z,101647.75
2023-02-02T06:09:35.562Z,101668.78
2023-02-02T06:12:02.606Z,101678.19
2023-02-02T06:14:29.623Z,101694.56
2023-02-02T06:17:16.959Z,101697.16
2023-02-02T06:19:57.539Z,101698.97
2023-02-02T06:22:24.548Z,101671.56
2023-02-02T06:24:53.494Z,101678.28
2023-02-02T06:27:21.153Z,101655.56
2023-02-02T06:29:48.125Z,101673.38
2023-02-02T06:32:15.307Z,101685.66
2023-02-02T06:34:42.333Z,101634.75
2023-02-02T06:37:09.228Z,101649.19
2023-02-02T06:39:36.215Z,101612.84
2023-02-02T06:42:19.253Z,101651.63
2023-02-02T06:44:48.026Z,101623.44
2023-02-02T06:47:14.962Z,101627.81
2023-02-02T06:49:41.851Z,101650.50
2023-02-02T06:52:08.753Z,101656.94
2023-02-02T06:54:35.740Z,101667.41
2023-02-02T06:57:22.967Z,101653.22
2023-02-02T07:00:25.067Z,101673.44
2023-02-02T07:03:25.962Z,101644.06
2023-02-02T07:06:14.371Z,101678.81
2023-02-02T07:08:42.020Z,101667.75
2023-02-02T07:11:15.605Z,101668.88
2023-02-02T07:14:18.068Z,101689.59
2023-02-02T07:17:19.080Z,101708.41
2023-02-02T07:19:59.643Z,101692.53
2023-02-02T07:22:26.627Z,101662.44
2023-02-02T07:24:53.664Z,101678.72
2023-02-02T07:27:23.574Z,101722.06
2023-02-02T07:30:11.008Z,101676.97
2023-02-02T07:33:11.998Z,101700.53
2023-02-02T07:35:52.914Z,101713.47
2023-02-02T07:38:19.997Z,101710.00
2023-02-02T07:40:47.137Z,101659.38
2023-02-02T07:43:14.059Z,101686.50
2023-02-02T07:45:41.436Z,101686.34
2023-02-02T07:48:08.540Z,101687.22
2023-02-02T07:50:35.512Z,101684.28
2023-02-02T07:53:02.536Z,101669.06
2023-02-02T07:55:50.098Z,101713.19
2023-02-02T07:58:30.719Z,101732.03
2023-02-02T08:01:01.607Z,101717.44
2023-02-02T08:03:50.054Z,101733.41
2023-02-02T08:06:53.052Z,101697.88
2023-02-02T08:09:33.613Z,101706.47
2023-02-02T08:12:02.459Z,101739.25
2023-02-02T08:14:29.683Z,101723.34
2023-02-02T08:17:17.050Z,101710.06
2023-02-02T08:20:20.030Z,101700.53
2023-02-02T08:23:22.074Z,101742.03
2023-02-02T08:26:18.053Z,101734.94
2023-02-02T08:28:48.257Z,101723.53
2023-02-02T08:31:18.939Z,101729.06
2023-02-02T08:33:46.069Z,101729.50
2023-02-02T08:36:18.986Z,101675.00
2023-02-02T08:38:46.430Z,101737.72
2023-02-02T08:41:16.013Z,101750.78
2023-02-02T08:43:43.368Z,101756.41
2023-02-02T08:46:12.443Z,101606.94
2023-02-02T08:48:40.059Z,101722.03
2023-02-02T08:51:10.023Z,101753.75
2023-02-02T08:53:37.059Z,101724.09
2023-02-02T08:56:31.067Z,101740.72
2023-02-02T08:59:32.049Z,101721.84
2023-02-02T09:02:33.178Z,101694.34
2023-02-02T09:05:13.880Z,101739.34
2023-02-02T09:07:40.986Z,101735.13
2023-02-02T09:10:08.293Z,101709.34
2023-02-02T09:12:55.052Z,101694.88
2023-02-02T09:15:58.063Z,101751.28
2023-02-02T09:19:00.118Z,101716.09
2023-02-02T09:21:40.820Z,101738.47
2023-02-02T09:24:10.900Z,101746.72
2023-02-02T09:26:40.434Z,101731.00
2023-02-02T09:29:11.807Z,101737.97
2023-02-02T09:31:39.490Z,101747.88
2023-02-02T09:34:09.153Z,101730.34
2023-02-02T09:36:37.504Z,101730.00
2023-02-02T09:39:27.049Z,101735.03
2023-02-02T09:42:29.254Z,101740.19
2023-02-02T09:45:02.163Z,101752.09
2023-02-02T09:47:52.485Z,101751.63
2023-02-02T09:50:43.697Z,101752.03
2023-02-02T09:53:10.738Z,101751.28
2023-02-02T09:56:02.181Z,101753.03
2023-02-02T09:58:49.362Z,101756.97
2023-02-02T10:01:27.855Z,101753.19
2023-02-02T10:04:27.108Z,101713.53
2023-02-02T10:07:33.283Z,101747.50
2023-02-02T10:10:53.067Z,101766.28
2023-02-02T10:13:38.197Z,101785.00
2023-02-02T10:16:31.132Z,101707.16
2023-02-02T10:19:37.138Z,101749.97
2023-02-02T10:22:30.099Z,101766.16
2023-02-02T10:25:34.093Z,101768.31
2023-02-02T10:28:12.413Z,101704.03
2023-02-02T10:30:46.488Z,101742.72
2023-02-02T10:33:19.050Z,101770.78
2023-02-02T10:36:10.500Z,101750.28
2023-02-02T10:39:12.122Z,101762.03
2023-02-02T10:42:11.386Z,101755.22
2023-02-02T10:45:08.086Z,101734.19
2023-02-02T10:47:50.918Z,101742.25
2023-02-02T10:50:22.578Z,101691.16
2023-02-02T10:52:58.256Z,101724.00
2023-02-02T10:55:54.133Z,101734.50
2023-02-02T10:58:50.842Z,101748.09
2023-02-02T11:01:38.163Z,101721.28
2023-02-02T11:04:40.286Z,101741.44
2023-02-02T11:07:07.607Z,101725.69
2023-02-02T11:09:41.234Z,101694.81
2023-02-02T11:12:36.318Z,101700.94
2023-02-02T11:15:37.148Z,101708.28
2023-02-02T11:18:35.298Z,101715.00
2023-02-02T11:21:32.153Z,101718.03
2023-02-02T11:24:23.949Z,101666.84
2023-02-02T11:26:58.202Z,101686.84
2023-02-02T11:29:43.062Z,101700.13
2023-02-02T11:32:33.312Z,101700.56
2023-02-02T11:35:22.383Z,101698.34
2023-02-02T11:38:16.731Z,101683.38
2023-02-02T11:40:45.907Z,101664.13
2023-02-02T11:43:43.178Z,101676.78
2023-02-02T11:46:45.296Z,101647.41
2023-02-02T11:49:26.457Z,101671.81
2023-02-02T11:52:02.251Z,101643.38
2023-02-02T11:54:33.238Z,101593.16
2023-02-02T11:57:24.181Z,101634.09
2023-02-02T12:00:10.815Z,101651.81
2023-02-02T12:02:37.937Z,101605.50
2023-02-02T12:05:20.139Z,101647.97
2023-02-02T12:07:48.934Z,101599.34
2023-02-02T12:10:54.563Z,101634.03
2023-02-02T12:13:53.950Z,101636.50
2023-02-02T12:16:44.279Z,101625.00
2023-02-02T12:19:24.691Z,101622.97
2023-02-02T12:22:00.772Z,101619.59
2023-02-02T12:24:31.369Z,101623.84
2023-02-02T12:27:23.173Z,101617.41
2023-02-02T12:30:09.024Z,101611.19
2023-02-02T12:33:25.156Z,101584.59
2023-02-02T12:36:26.819Z,101596.13
2023-02-02T12:39:09.159Z,101598.38
2023-02-02T12:41:39.332Z,101601.97
2023-02-02T12:44:36.191Z,101547.13
2023-02-02T12:47:55.179Z,101604.50
2023-02-02T12:51:20.432Z,101594.25
2023-02-02T12:54:33.144Z,101599.94
2023-02-02T12:57:15.182Z,101537.69
2023-02-02T13:00:17.837Z,101595.44
2023-02-02T13:03:22.771Z,101594.91
2023-02-02T13:06:37.229Z,101559.00
2023-02-02T13:10:11.186Z,101590.28
2023-02-02T13:13:02.495Z,101371.81
2023-02-02T13:15:38.964Z,101559.69
2023-02-02T13:18:49.233Z,101382.28
2023-02-02T13:21:52.309Z,101489.25
2023-02-02T13:24:37.427Z,101587.09
2023-02-02T13:27:07.840Z,101567.19
2023-02-02T13:30:01.543Z,101600.56
2023-02-02T13:32:55.299Z,101522.72
2023-02-02T13:35:46.630Z,101592.16
2023-02-02T13:38:16.139Z,101572.75
2023-02-02T13:41:09.399Z,101593.75
2023-02-02T13:44:36.214Z,101597.78
2023-02-02T13:47:50.480Z,101595.75
2023-02-02T13:51:21.285Z,101543.78
2023-02-02T13:54:10.706Z,101591.00
2023-02-02T13:57:21.315Z,101587.66
2023-02-02T14:00:05.172Z,101584.34
2023-02-02T14:02:48.082Z,101550.88
2023-02-02T14:05:26.448Z,101521.50
2023-02-02T14:08:16.245Z,101569.72
2023-02-02T14:11:21.312Z,101556.53
2023-02-02T14:21:40.410Z,101563.69
2023-02-02T14:26:26.080Z,101556.16
2023-02-02T14:49:48.735Z,101559.50
2023-02-02T15:03:24.681Z,101352.13
2023-02-02T15:06:17.254Z,101493.84
2023-02-02T15:09:20.224Z,101577.53
2023-02-02T15:12:01.285Z,101581.53
2023-02-02T15:14:53.598Z,101579.72
2023-02-02T15:17:41.830Z,101569.00
2023-02-02T15:20:43.288Z,101574.88
2023-02-02T15:23:41.356Z,101577.81
2023-02-02T15:26:31.219Z,101542.06
2023-02-02T15:29:16.610Z,101593.00
2023-02-02T15:31:47.586Z,101603.94
2023-02-02T15:34:39.315Z,101604.72
2023-02-02T15:37:30.327Z,101579.16
2023-02-02T15:40:03.138Z,101597.16
2023-02-02T15:43:01.426Z,101615.81
2023-02-02T15:46:09.281Z,101605.50
2023-02-02T15:49:33.885Z,101597.97
2023-02-02T15:52:11.665Z,101606.88
2023-02-02T15:54:38.836Z,101567.94
2023-02-02T15:57:39.244Z,101559.53
2023-02-02T16:00:40.386Z,101612.06
2023-02-02T16:03:51.384Z,101587.28
2023-02-02T16:06:34.855Z,101630.28
2023-02-02T16:09:07.085Z,101613.84
2023-02-02T16:11:41.472Z,101611.81
2023-02-02T16:14:17.713Z,101612.50
2023-02-02T16:16:47.560Z,101635.34
2023-02-02T16:19:20.432Z,101628.25
2023-02-02T16:21:47.388Z,101636.75
2023-02-02T16:24:24.111Z,101565.75
2023-02-02T16:26:53.207Z,101630.78
2023-02-02T16:29:21.143Z,101639.25
2023-02-02T16:31:49.705Z,101645.56
2023-02-02T16:34:54.269Z,101641.88
2023-02-02T16:37:36.553Z,101503.50
2023-02-02T16:40:22.549Z,101672.47
2023-02-02T16:43:37.283Z,101666.88
2023-02-02T16:46:57.391Z,101658.94
2023-02-02T16:49:51.284Z,101658.16
2023-02-02T16:52:21.422Z,101667.03
2023-02-02T16:55:11.312Z,101674.69
2023-02-02T16:58:12.311Z,101675.31
2023-02-02T17:01:13.541Z,101667.03
2023-02-02T17:03:52.636Z,101656.91
2023-02-02T17:06:35.736Z,101673.22
2023-02-02T17:09:36.092Z,101676.31
2023-02-02T17:12:12.365Z,101683.81
2023-02-02T17:15:04.992Z,101674.44
2023-02-02T17:17:31.881Z,101686.75
2023-02-02T17:19:59.118Z,101659.50
2023-02-02T17:22:27.872Z,101630.72
2023-02-02T17:24:54.979Z,101660.66
2023-02-02T17:27:26.900Z,101625.38
2023-02-02T17:29:54.491Z,101688.91
2023-02-02T17:32:21.452Z,101661.16
2023-02-02T17:35:08.313Z,101592.84
2023-02-02T17:38:10.313Z,101676.66
2023-02-02T17:40:51.683Z,101706.47
2023-02-02T17:43:38.320Z,101711.84
2023-02-02T17:46:40.315Z,101681.03
2023-02-02T17:49:21.722Z,101685.91
2023-02-02T17:51:50.791Z,101694.19
2023-02-02T17:54:17.886Z,101734.81
2023-02-02T17:57:05.310Z,101722.97
2023-02-02T17:59:47.040Z,101666.59
2023-02-02T18:02:16.197Z,101723.31
2023-02-02T18:05:03.338Z,101698.00
2023-02-02T18:07:44.168Z,101701.59
2023-02-02T18:10:13.881Z,101731.25
2023-02-02T18:12:41.734Z,101696.94
2023-02-02T18:15:12.781Z,101725.16
2023-02-02T18:17:39.782Z,101722.09
2023-02-02T18:20:07.328Z,101729.91
2023-02-02T18:22:34.336Z,101697.59
2023-02-02T18:25:01.246Z,101672.69
2023-02-02T18:27:31.207Z,101742.22
2023-02-02T18:30:18.358Z,101691.41
2023-02-02T18:32:59.280Z,101708.44
2023-02-02T18:35:46.391Z,101724.78
2023-02-02T18:38:26.839Z,101726.63
2023-02-02T18:40:57.367Z,101754.72
2023-02-02T18:43:24.380Z,101719.44
2023-02-02T18:46:17.881Z,101708.03
2023-02-02T18:48:44.868Z,101719.94
2023-02-02T18:51:18.316Z,101740.31
2023-02-02T18:54:07.374Z,101740.63
2023-02-02T18:57:08.456Z,101730.91
2023-02-02T18:59:49.840Z,101741.00
2023-02-02T19:02:19.756Z,101757.03
2023-02-02T19:05:05.156Z,101751.69
2023-02-02T19:07:51.028Z,101765.81
2023-02-02T19:10:19.653Z,101741.94
2023-02-02T19:13:10.741Z,101749.75
2023-02-02T19:15:39.431Z,101763.75
2023-02-02T19:18:25.506Z,101761.53
2023-02-02T19:21:11.788Z,101774.31
2023-02-02T19:23:41.307Z,101739.47
2023-02-02T19:26:24.651Z,101771.63
2023-02-02T19:28:53.093Z,101776.91
2023-02-02T19:31:20.155Z,101775.88
2023-02-02T19:34:07.419Z,101769.56
2023-02-02T19:37:08.387Z,101775.72
2023-02-02T19:39:49.045Z,101746.19
2023-02-02T19:42:16.111Z,101731.75
2023-02-02T19:44:43.036Z,101777.13
2023-02-02T19:47:26.164Z,101782.63
2023-02-02T19:49:54.727Z,101792.06
2023-02-02T19:52:26.280Z,101779.56
2023-02-02T19:55:13.410Z,101814.75
2023-02-02T19:58:36.381Z,101744.72
2023-02-02T20:01:20.803Z,101809.16
2023-02-02T20:03:47.917Z,101736.38
2023-02-02T20:06:24.742Z,101762.97
2023-02-02T20:08:52.661Z,101810.63
2023-02-02T20:11:35.579Z,101817.94
2023-02-02T20:14:18.830Z,101830.03
2023-02-02T20:16:50.717Z,101788.16
2023-02-02T20:19:33.736Z,101831.31
2023-02-02T20:22:34.412Z,101800.31
2023-02-02T20:25:06.667Z,101835.00
2023-02-02T20:27:34.261Z,101798.47
2023-02-02T20:30:18.687Z,101826.56
2023-02-02T20:32:46.250Z,101801.06
2023-02-02T20:35:38.440Z,101765.28
2023-02-02T20:38:42.437Z,101832.03
2023-02-02T20:41:23.206Z,101814.41
2023-02-02T20:43:50.113Z,101800.72
2023-02-02T20:46:17.187Z,101837.91
2023-02-02T20:48:44.296Z,101846.03
2023-02-02T20:51:11.266Z,101839.88
2023-02-02T20:54:02.434Z,101808.31
2023-02-02T20:57:04.609Z,101844.75
2023-02-02T20:59:45.764Z,101756.41
2023-02-02T21:02:22.709Z,101860.06
2023-02-02T21:04:51.328Z,101865.13
2023-02-02T21:07:20.926Z,101859.09
2023-02-02T21:09:50.143Z,101861.75
2023-02-02T21:12:17.954Z,101820.69
2023-02-02T21:14:47.614Z,101865.09
2023-02-02T21:17:34.460Z,101827.69
2023-02-02T21:20:35.421Z,101864.09
2023-02-02T21:23:16.779Z,101850.75
2023-02-02T21:25:43.758Z,101863.72
2023-02-02T21:28:10.793Z,101838.72
2023-02-02T21:30:37.830Z,101870.94
2023-02-02T21:33:24.476Z,101869.69
2023-02-02T21:36:51.457Z,101892.25
2023-02-02T21:40:00.498Z,101793.88
2023-02-02T21:42:47.443Z,101882.19
2023-02-02T21:45:20.595Z,101877.59
2023-02-02T21:47:53.841Z,101818.19
2023-02-02T21:50:28.737Z,101841.63
2023-02-02T21:53:14.552Z,101888.84
2023-02-02T21:56:05.543Z,101891.69
2023-02-02T21:59:06.444Z,101883.53
2023-02-02T22:01:57.975Z,101877.22
2023-02-02T22:04:28.479Z,101893.47
2023-02-02T22:07:00.038Z,101843.78
2023-02-02T22:09:37.012Z,101888.72
2023-02-02T22:12:12.224Z,101887.16
2023-02-02T22:14:44.543Z,101887.53
2023-02-02T22:17:14.364Z,101893.91
2023-02-02T22:19:43.667Z,101899.19
2023-02-02T22:22:16.634Z,101879.25
2023-02-02T22:24:53.295Z,101860.53
2023-02-02T22:27:55.510Z,101901.91
2023-02-02T22:30:38.754Z,101859.06
2023-02-02T22:33:07.729Z,101889.06
2023-02-02T22:35:55.501Z,101909.94
2023-02-02T22:38:36.132Z,101918.56
2023-02-02T22:41:03.212Z,101895.25
2023-02-02T22:43:30.114Z,101893.28
2023-02-02T22:45:57.075Z,101925.13
2023-02-02T22:48:24.044Z,101853.59
2023-02-02T22:50:53.812Z,101888.03
2023-02-02T22:53:20.914Z,101904.78
2023-02-02T22:56:07.551Z,101935.53
2023-02-02T22:59:10.486Z,101907.03
2023-02-02T23:02:05.627Z,101914.97
2023-02-02T23:04:32.701Z,101903.63
2023-02-02T23:06:59.594Z,101831.16
2023-02-02T23:09:26.468Z,101978.13
2023-02-02T23:11:53.323Z,101940.38
2023-02-02T23:14:20.115Z,101861.78
2023-02-02T23:16:47.024Z,101905.31
2023-02-02T23:19:13.929Z,101925.06
2023-02-02T23:21:40.753Z,101904.78
2023-02-02T23:24:08.015Z,101876.56
2023-02-02T23:26:34.859Z,101951.22
2023-02-02T23:29:01.845Z,101888.41
2023-02-02T23:31:28.952Z,101886.47
2023-02-02T23:34:16.498Z,101888.03
2023-02-02T23:37:17.494Z,101935.16
2023-02-02T23:40:19.521Z,101932.94
2023-02-02T23:43:00.028Z,101935.28
2023-02-02T23:45:27.394Z,101923.47
2023-02-02T23:47:54.523Z,101954.13
2023-02-02T23:50:21.350Z,101935.66
2023-02-02T23:52:48.501Z,101929.09
2023-02-02T23:55:35.521Z,101922.22
2023-02-02T23:58:23.053Z,101940.81
